createdAt,value
2023-08-28T00:02:06.187Z,90.80
2023-08-28T00:07:13.820Z,90.64
2023-08-28T00:12:21.189Z,90.79
2023-08-28T00:17:28.517Z,90.78
2023-08-28T00:22:35.731Z,90.79
2023-08-28T00:27:43.128Z,90.75
2023-08-28T00:32:50.538Z,90.58
2023-08-28T00:37:57.894Z,90.45
2023-08-28T00:43:05.355Z,90.48
2023-08-28T00:48:14.409Z,90.54
2023-08-28T00:53:22.404Z,90.33
2023-08-28T00:58:29.872Z,90.44
2023-08-28T01:03:37.381Z,90.33
2023-08-28T01:09:01.847Z,90.45
2023-08-28T01:14:17.146Z,90.61
2023-08-28T01:19:33.253Z,90.68
2023-08-28T01:24:47.782Z,90.78
2023-08-28T01:30:14.131Z,90.74
2023-08-28T01:35:25.903Z,90.84
2023-08-28T01:40:39.279Z,90.76
2023-08-28T01:45:46.714Z,91.04
2023-08-28T01:50:54.004Z,90.81
2023-08-28T01:56:26.695Z,90.72
2023-08-28T02:01:33.993Z,90.69
2023-08-28T02:06:41.470Z,90.65
2023-08-28T02:11:50.942Z,90.42
2023-08-28T02:16:58.321Z,90.51
2023-08-28T02:22:05.808Z,90.70
2023-08-28T02:27:13.130Z,90.78
2023-08-28T02:32:20.463Z,90.75
2023-08-28T02:37:30.586Z,91.02
2023-08-28T02:42:38.315Z,91.16
2023-08-28T02:47:47.038Z,91.43
2023-08-28T02:52:54.276Z,91.46
2023-08-28T02:58:01.559Z,91.02
2023-08-28T03:03:09.880Z,90.98
2023-08-28T03:08:17.281Z,90.87
2023-08-28T03:13:24.678Z,90.76
2023-08-28T03:18:32.033Z,90.50
2023-08-28T03:23:41.484Z,90.53
2023-08-28T03:28:49.102Z,90.60
2023-08-28T03:33:56.485Z,90.56
2023-08-28T03:39:03.686Z,90.52
2023-08-28T03:44:11.133Z,90.55
2023-08-28T03:49:18.434Z,90.40
2023-08-28T03:54:25.733Z,90.40
2023-08-28T03:59:33.455Z,90.39
2023-08-28T04:04:40.879Z,90.26
2023-08-28T04:09:48.194Z,90.15
2023-08-28T04:14:56.045Z,90.14
2023-08-28T04:20:13.946Z,90.27
2023-08-28T04:25:21.368Z,90.35
2023-08-28T04:30:28.744Z,90.44
2023-08-28T04:35:36.012Z,90.24
2023-08-28T04:40:43.367Z,90.19
2023-08-28T04:45:52.455Z,90.18
2023-08-28T04:50:59.955Z,90.15
2023-08-28T04:56:07.615Z,90.10
2023-08-28T05:01:14.926Z,90.04
2023-08-28T05:06:22.199Z,90.17
2023-08-28T05:11:29.401Z,89.98
2023-08-28T05:16:36.934Z,89.86
2023-08-28T05:21:44.249Z,89.73
2023-08-28T05:26:52.598Z,89.69
2023-08-28T05:32:00.334Z,89.69
2023-08-28T05:37:08.504Z,89.62
2023-08-28T05:42:15.970Z,89.59
2023-08-28T05:47:23.178Z,89.43
2023-08-28T05:52:30.673Z,89.24
2023-08-28T05:57:38.582Z,89.00
2023-08-28T06:02:46.481Z,89.04
2023-08-28T06:07:53.974Z,89.05
2023-08-28T06:13:01.703Z,88.70
2023-08-28T06:18:11.870Z,88.47
2023-08-28T06:23:19.311Z,88.25
2023-08-28T06:28:27.001Z,88.29
2023-08-28T06:33:34.190Z,88.24
2023-08-28T06:38:41.656Z,88.14
2023-08-28T06:43:50.852Z,88.13
2023-08-28T06:48:58.342Z,87.19
2023-08-28T06:54:05.820Z,86.85
2023-08-28T06:59:13.110Z,87.09
2023-08-28T07:04:20.491Z,86.60
2023-08-28T07:09:27.974Z,86.40
2023-08-28T07:14:35.174Z,86.65
2023-08-28T07:19:42.594Z,86.72
2023-08-28T07:24:49.866Z,86.60
2023-08-28T07:29:57.696Z,86.76
2023-08-28T07:35:07.055Z,86.46
2023-08-28T07:40:14.424Z,86.58
2023-08-28T07:45:21.865Z,86.78
2023-08-28T07:50:30.834Z,86.77
2023-08-28T07:55:38.471Z,86.55
2023-08-28T08:00:46.054Z,86.83
2023-08-28T08:05:55.967Z,86.57
2023-08-28T08:11:03.208Z,86.46
2023-08-28T08:16:10.548Z,86.51
2023-08-28T08:21:21.318Z,86.51
2023-08-28T08:26:29.546Z,86.50
2023-08-28T08:31:37.584Z,86.06
2023-08-28T08:36:44.855Z,85.82
2023-08-28T08:41:52.134Z,85.94
2023-08-28T08:47:00.034Z,85.61
2023-08-28T08:52:10.768Z,85.80
2023-08-28T08:57:23.820Z,86.23
2023-08-28T09:02:31.927Z,85.96
2023-08-28T09:07:39.702Z,85.58
2023-08-28T09:12:47.562Z,85.77
2023-08-28T09:17:55.398Z,85.72
2023-08-28T09:23:02.856Z,85.23
2023-08-28T09:28:10.750Z,84.99
2023-08-28T09:33:17.989Z,85.08
2023-08-28T09:38:27.972Z,84.72
2023-08-28T09:43:39.262Z,84.35
2023-08-28T09:48:47.176Z,84.14
2023-08-28T09:54:02.980Z,84.14
2023-08-28T09:59:13.242Z,83.25
2023-08-28T10:04:23.521Z,83.22
2023-08-28T10:09:33.734Z,82.57
2023-08-28T10:14:42.059Z,82.19
2023-08-28T10:19:59.431Z,81.06
2023-08-28T10:25:08.689Z,79.46
2023-08-28T10:30:17.802Z,79.18
2023-08-28T10:35:25.358Z,79.45
2023-08-28T10:40:34.944Z,78.66
2023-08-28T10:45:46.057Z,78.12
2023-08-28T10:50:59.564Z,77.87
2023-08-28T10:56:09.074Z,77.58
2023-08-28T11:01:17.894Z,77.89
2023-08-28T11:06:44.281Z,76.55
2023-08-28T11:11:51.728Z,76.54
2023-08-28T11:17:08.007Z,76.41
2023-08-28T11:22:16.103Z,76.41
2023-08-28T11:27:46.307Z,76.63
2023-08-28T11:32:53.065Z,74.81
2023-08-28T11:38:02.801Z,74.04
2023-08-28T11:43:10.000Z,74.00
2023-08-28T11:48:18.191Z,74.76
2023-08-28T11:53:34.355Z,74.88
2023-08-28T11:58:43.334Z,73.62
2023-08-28T12:03:56.972Z,73.89
2023-08-28T12:09:06.096Z,74.31
2023-08-28T12:14:20.146Z,73.89
2023-08-28T12:19:27.480Z,73.07
2023-08-28T12:24:34.830Z,73.66
2023-08-28T12:29:43.558Z,73.92
2023-08-28T12:34:51.138Z,73.94
2023-08-28T12:40:00.213Z,74.36
2023-08-28T12:45:09.129Z,74.37
2023-08-28T12:50:21.067Z,73.79
2023-08-28T12:55:32.108Z,74.18
2023-08-28T13:00:40.281Z,73.68
2023-08-28T13:05:47.550Z,73.49
2023-08-28T13:10:55.433Z,73.02
2023-08-28T13:16:03.671Z,73.14
2023-08-28T13:21:12.093Z,72.85
2023-08-28T13:26:22.959Z,72.77
2023-08-28T13:31:32.842Z,73.70
2023-08-28T13:36:39.767Z,73.32
2023-08-28T13:41:46.942Z,73.42
2023-08-28T13:46:54.315Z,73.22
2023-08-28T13:52:01.626Z,73.07
2023-08-28T13:57:09.430Z,73.61
2023-08-28T14:02:16.791Z,73.46
2023-08-28T14:07:24.487Z,73.73
2023-08-28T14:12:31.819Z,73.74
2023-08-28T14:17:40.893Z,74.05
2023-08-28T14:22:48.679Z,74.04
2023-08-28T14:28:08.018Z,74.34
2023-08-28T14:33:23.686Z,74.43
2023-08-28T14:38:32.526Z,74.41
2023-08-28T14:43:40.135Z,74.11
2023-08-28T14:48:47.582Z,73.65
2023-08-28T14:53:57.420Z,73.82
2023-08-28T14:59:05.223Z,74.02
2023-08-28T15:04:12.841Z,74.17
2023-08-28T15:09:20.946Z,73.99
2023-08-28T15:14:29.276Z,73.91
2023-08-28T15:19:36.954Z,73.91
2023-08-28T15:24:44.702Z,74.13
2023-08-28T15:29:52.908Z,74.04
2023-08-28T15:35:01.229Z,73.81
2023-08-28T15:40:10.179Z,73.74
2023-08-28T15:45:19.485Z,73.49
2023-08-28T15:50:27.090Z,74.06
2023-08-28T15:55:34.677Z,74.26
2023-08-28T16:00:42.393Z,74.19
2023-08-28T16:05:50.015Z,73.94
2023-08-28T16:10:57.950Z,73.95
2023-08-28T16:16:05.854Z,74.06
2023-08-28T16:21:13.508Z,74.04
2023-08-28T16:26:21.360Z,73.72
2023-08-28T16:31:29.076Z,74.00
2023-08-28T16:36:36.751Z,73.66
2023-08-28T16:41:44.301Z,73.34
2023-08-28T16:46:52.022Z,73.45
2023-08-28T16:52:02.735Z,73.38
2023-08-28T16:57:10.257Z,73.13
2023-08-28T17:02:17.953Z,73.50
2023-08-28T17:07:26.317Z,72.67
2023-08-28T17:12:34.320Z,72.49
2023-08-28T17:17:42.090Z,72.55
2023-08-28T17:22:49.666Z,72.72
2023-08-28T17:27:57.553Z,73.04
2023-08-28T17:33:05.877Z,73.08
2023-08-28T17:38:14.124Z,73.21
2023-08-28T17:43:24.098Z,73.48
2023-08-28T17:48:32.852Z,73.58
2023-08-28T17:53:40.506Z,73.60
2023-08-28T17:58:48.893Z,73.90
2023-08-28T18:03:56.767Z,73.83
2023-08-28T18:09:06.904Z,74.40
2023-08-28T18:14:14.771Z,74.65
2023-08-28T18:19:22.507Z,74.89
2023-08-28T18:24:30.614Z,74.90
2023-08-28T18:29:38.406Z,75.13
2023-08-28T18:34:50.242Z,75.51
2023-08-28T18:39:58.388Z,75.64
2023-08-28T18:45:06.795Z,75.68
2023-08-28T18:50:15.221Z,75.87
2023-08-28T18:55:32.293Z,75.92
2023-08-28T19:00:41.044Z,76.20
2023-08-28T19:05:48.846Z,76.64
2023-08-28T19:10:59.356Z,76.97
2023-08-28T19:16:08.253Z,77.22
2023-08-28T19:21:16.087Z,77.67
2023-08-28T19:26:24.721Z,77.64
2023-08-28T19:31:32.852Z,78.00
2023-08-28T19:36:40.730Z,78.66
2023-08-28T19:41:48.317Z,79.09
2023-08-28T19:46:55.807Z,79.00
2023-08-28T19:52:04.068Z,79.38
2023-08-28T19:57:11.505Z,79.79
2023-08-28T20:02:19.733Z,79.77
2023-08-28T20:07:27.392Z,80.32
2023-08-28T20:12:34.892Z,80.96
2023-08-28T20:17:42.351Z,81.20
2023-08-28T20:22:51.090Z,81.49
2023-08-28T20:28:00.543Z,81.80
2023-08-28T20:33:09.425Z,81.98
2023-08-28T20:38:16.870Z,81.72
2023-08-28T20:43:24.314Z,81.89
2023-08-28T20:48:31.934Z,81.99
2023-08-28T20:53:39.274Z,81.89
2023-08-28T20:58:46.702Z,82.24
2023-08-28T21:03:54.408Z,83.13
2023-08-28T21:09:02.914Z,83.56
2023-08-28T21:14:10.347Z,84.33
2023-08-28T21:19:28.134Z,85.67
2023-08-28T21:24:35.513Z,87.04
2023-08-28T21:29:42.892Z,87.51
2023-08-28T21:34:50.162Z,87.34
2023-08-28T21:39:57.738Z,87.34
2023-08-28T21:45:08.587Z,86.55
2023-08-28T21:50:17.306Z,86.00
2023-08-28T21:55:43.397Z,85.14
2023-08-28T22:01:10.227Z,84.83
2023-08-28T22:06:54.062Z,84.21
2023-08-28T22:12:01.899Z,84.24
2023-08-28T22:17:14.197Z,84.41
2023-08-28T22:22:21.582Z,84.73
2023-08-28T22:27:29.061Z,84.40
2023-08-28T22:32:36.576Z,85.51
2023-08-28T22:37:44.052Z,85.59
2023-08-28T22:42:51.416Z,86.32
2023-08-28T22:47:58.836Z,86.66
2023-08-28T22:53:06.997Z,87.10
2023-08-28T22:58:14.783Z,87.32
2023-08-28T23:03:22.260Z,87.77
2023-08-28T23:08:29.740Z,87.95
2023-08-28T23:13:37.095Z,87.30
2023-08-28T23:18:44.477Z,87.15
2023-08-28T23:23:51.862Z,86.76
2023-08-28T23:28:59.498Z,86.53
2023-08-28T23:34:07.273Z,86.78
2023-08-28T23:39:15.078Z,86.72
2023-08-28T23:44:24.665Z,86.45
2023-08-28T23:49:32.117Z,86.06
2023-08-28T23:54:39.553Z,85.68
2023-08-28T23:59:46.819Z,88.19
